»·PEaware :: DAL2722 KSLC-KRNO

DAL2722 :: KSLC-KRNO

FLIGHT INFORMATION

Flight Status: Arrived
Operator:
Delta Air Lines
More flights by this operator :: More flights under this callsign
Pilot: John C. (18682)
Aircraft: BOEING 737-800
(B738)
More flights by this aircraft type
Origin: KSLC Salt Lake City Intl
United States
Destination: KRNO Reno/Tahoe Intl
United States
More flights between these airports :: More routes between these airports
Route: DEZRT1 BAM MYBAD MYBAD2
File this flight plan on PilotEdge
Remarks:
Altitude:
(Current/Filed)
38,000ft
Speed:
(Current/Filed)
454kts
Departed: 13-Mar-20 06:21 PM
Arrived: 13-Mar-20 07:28 PM
Distance/Time
Traveled:
366nm/1:07
Distance/Time
To Go:
Arrived

Flight Plot

Page will automatically refresh every two minutes.


Map Options




Map Legend


Flown Route
Filed Route
Departure Airport
Arrival Airport
Navaid (VOR, NDB)
Fix

Horizontal Profiles

Position Reports

Time Latitude Longitude Heading Altitude Ground
Speed
13-Mar-20 17:54 40.787737 -111.981115 283 4238ft 0kts
13-Mar-20 17:55 40.787737 -111.981115 283 4238ft 0kts
13-Mar-20 17:56 40.787737 -111.981115 283 4238ft 0kts
13-Mar-20 17:57 40.787737 -111.981115 283 4238ft 0kts
13-Mar-20 17:58 40.787737 -111.981115 283 4238ft 0kts
13-Mar-20 17:59 40.787737 -111.981115 283 4238ft 0kts
13-Mar-20 18:00 40.787737 -111.981115 283 4238ft 0kts
13-Mar-20 18:01 40.787737 -111.981115 283 4238ft 0kts
13-Mar-20 18:02 40.787737 -111.981115 283 4238ft 0kts
13-Mar-20 18:03 40.787737 -111.981115 283 4238ft 0kts
13-Mar-20 18:04 40.787737 -111.981115 283 4237ft 0kts
13-Mar-20 18:05 40.787737 -111.981115 283 4237ft 0kts
13-Mar-20 18:06 40.787737 -111.981115 283 4237ft 0kts
13-Mar-20 18:07 40.787737 -111.981115 283 4237ft 0kts
13-Mar-20 18:08 40.787737 -111.981115 283 4237ft 0kts
13-Mar-20 18:09 40.787737 -111.981115 283 4237ft 0kts
13-Mar-20 18:10 40.787682 -111.980801 283 4238ft 2kts
13-Mar-20 18:11 40.787387 -111.980372 25 4238ft 1kts
13-Mar-20 18:12 40.787341 -111.980398 19 4237ft 0kts
13-Mar-20 18:13 40.787341 -111.980398 19 4237ft 0kts
13-Mar-20 18:14 40.787906 -111.980149 18 4238ft 11kts
13-Mar-20 18:15 40.791087 -111.979497 355 4238ft 4kts
13-Mar-20 18:16 40.792025 -111.978359 84 4237ft 9kts
13-Mar-20 18:17 40.795182 -111.977686 354 4237ft 20kts
13-Mar-20 18:18 40.801911 -111.978469 355 4237ft 20kts
13-Mar-20 18:19 40.807042 -111.978491 19 4237ft 13kts
13-Mar-20 18:20 40.805005 -111.976659 174 4238ft 51kts
13-Mar-20 18:21 40.768581 -111.972742 182 5017ft 162kts
13-Mar-20 18:22 40.760841 -112.030152 302 6147ft 248kts
13-Mar-20 18:23 40.792539 -112.116978 281 8716ft 273kts
13-Mar-20 18:24 40.816064 -112.217585 287 10884ft 311kts
13-Mar-20 18:25 40.844604 -112.329826 287 13276ft 334kts
13-Mar-20 18:26 40.874662 -112.449323 281 15729ft 347kts
13-Mar-20 18:27 40.864027 -112.577542 263 18194ft 358kts
13-Mar-20 18:28 40.852037 -112.710392 263 20430ft 370kts
13-Mar-20 18:29 40.842696 -112.847286 268 22477ft 380kts
13-Mar-20 18:30 40.842426 -112.988156 269 24390ft 388kts
13-Mar-20 18:31 40.842784 -113.132260 269 26063ft 397kts
13-Mar-20 18:32 40.843094 -113.279928 269 27562ft 406kts
13-Mar-20 18:33 40.843258 -113.430497 269 28922ft 414kts
13-Mar-20 18:34 40.843249 -113.584036 269 30171ft 420kts
13-Mar-20 18:35 40.843005 -113.738667 269 31662ft 418kts
13-Mar-20 18:36 40.842194 -113.891915 268 33153ft 414kts
13-Mar-20 18:37 40.840721 -114.043133 269 34536ft 410kts
13-Mar-20 18:38 40.839579 -114.193019 269 35739ft 407kts
13-Mar-20 18:39 40.838396 -114.342076 269 36851ft 405kts
13-Mar-20 18:40 40.837061 -114.491083 269 37720ft 408kts
13-Mar-20 18:41 40.835557 -114.639665 269 37747ft 404kts
13-Mar-20 18:42 40.828740 -114.787573 262 37741ft 406kts
13-Mar-20 18:43 40.812523 -114.934884 262 37694ft 405kts
13-Mar-20 18:44 40.796019 -115.081237 261 37679ft 400kts
13-Mar-20 18:45 40.779652 -115.224566 261 37677ft 392kts
13-Mar-20 18:46 40.763153 -115.367427 261 37677ft 393kts
13-Mar-20 18:47 40.746110 -115.509912 261 37675ft 393kts
13-Mar-20 18:48 40.729157 -115.651366 260 37674ft 393kts
13-Mar-20 18:49 40.711924 -115.794485 260 37682ft 393kts
13-Mar-20 18:50 40.694758 -115.936355 260 37680ft 393kts
13-Mar-20 18:51 40.677407 -116.078556 260 37679ft 393kts
13-Mar-20 18:52 40.659901 -116.220629 260 37678ft 393kts
13-Mar-20 18:53 40.642228 -116.362620 260 37676ft 393kts
13-Mar-20 18:54 40.624357 -116.504767 260 37675ft 393kts
13-Mar-20 18:55 40.606361 -116.646503 260 37673ft 393kts
13-Mar-20 18:56 40.588126 -116.787983 260 37681ft 393kts
13-Mar-20 18:57 40.569740 -116.929651 260 37681ft 392kts
13-Mar-20 18:58 40.551935 -117.070011 260 37678ft 386kts
13-Mar-20 18:59 40.535110 -117.208415 260 37678ft 383kts
13-Mar-20 19:00 40.518301 -117.347454 260 37676ft 385kts
13-Mar-20 19:01 40.501475 -117.485705 260 37662ft 384kts
13-Mar-20 19:02 40.484489 -117.623959 260 37646ft 384kts
13-Mar-20 19:03 40.467148 -117.762989 259 37654ft 385kts
13-Mar-20 19:04 40.449718 -117.901665 259 37585ft 384kts
13-Mar-20 19:05 40.432433 -118.038049 259 35374ft 379kts
13-Mar-20 19:06 40.414899 -118.175258 259 32333ft 388kts
13-Mar-20 19:07 40.396768 -118.315709 257 29690ft 389kts
13-Mar-20 19:08 40.353582 -118.447557 240 29649ft 381kts
13-Mar-20 19:09 40.299689 -118.564301 240 29646ft 380kts
13-Mar-20 19:10 40.248457 -118.681697 243 28670ft 371kts
13-Mar-20 19:11 40.201555 -118.801361 243 26071ft 368kts
13-Mar-20 19:12 40.155544 -118.918588 243 23600ft 359kts
13-Mar-20 19:13 40.110535 -119.032806 243 21233ft 343kts
13-Mar-20 19:14 40.068669 -119.138581 243 19097ft 315kts
13-Mar-20 19:15 40.029636 -119.236031 242 17285ft 292kts
13-Mar-20 19:16 39.990920 -119.332979 242 15461ft 304kts
13-Mar-20 19:17 39.952628 -119.428730 242 14070ft 295kts
13-Mar-20 19:18 39.911150 -119.520221 238 12737ft 291kts
13-Mar-20 19:19 39.857947 -119.592269 213 11094ft 261kts
13-Mar-20 19:20 39.799052 -119.636780 213 9958ft 238kts
13-Mar-20 19:21 39.744443 -119.680878 217 8746ft 215kts
13-Mar-20 19:22 39.697023 -119.726309 216 8072ft 214kts
13-Mar-20 19:23 39.650160 -119.762333 199 7053ft 175kts
13-Mar-20 19:24 39.605723 -119.768848 184 6292ft 154kts
13-Mar-20 19:25 39.564384 -119.769229 185 5551ft 146kts
13-Mar-20 19:26 39.525097 -119.769168 182 4753ft 141kts
13-Mar-20 19:27 39.495976 -119.769302 179 4410ft 32kts
13-Mar-20 19:28 39.492785 -119.771441 333 4413ft 8kts
13-Mar-20 19:29 39.497316 -119.771521 0 4413ft 16kts
13-Mar-20 19:30 39.502534 -119.771510 359 4413ft 18kts
13-Mar-20 19:31 39.504830 -119.772307 279 4415ft 0kts
13-Mar-20 19:32 39.504830 -119.772307 279 4415ft 0kts
13-Mar-20 19:33 39.504830 -119.772307 279 4415ft 0kts

Navigation Log

Ident Type
Flight plan parsing failed, navigation log unavailable